Time;durP1;ratioP1;P1;durP2;ratioP2;P2;SDS_P1;SDS_P2;PMS_P1;PMS_P2;Temp;Humidity;BMP_temperature;BMP_pressure;BME280_temperature;BME280_humidity;BME280_pressure;Samples;Min_cycle;Max_cycle;Signal;HPM_P1;HPM_P2
2023/05/02 00:02:20;;;;;;;10.13;2.40;;;;;;;;;;5076320;27;20356;-70
2023/05/02 00:04:47;;;;;;;9.32;3.08;;;;;;;;;;5079488;28;20399;-69
2023/05/02 00:07:13;;;;;;;9.77;2.70;;;;;;;;;;5076404;28;20044;-70
2023/05/02 00:09:39;;;;;;;14.40;3.17;;;;;;;;;;5071068;27;20165;-70
2023/05/02 00:12:05;;;;;;;8.23;2.63;;;;;;;;;;5071367;27;20066;-70
2023/05/02 00:14:31;;;;;;;12.27;2.80;;;;;;;;;;5072062;27;20044;-69
2023/05/02 00:16:58;;;;;;;11.85;2.50;;;;;;;;;;5072721;28;20040;-70
2023/05/02 00:19:24;;;;;;;10.75;2.95;;;;;;;;;;5070958;28;20048;-70
2023/05/02 00:21:50;;;;;;;12.55;2.95;;;;;;;;;;5072962;27;20449;-69
2023/05/02 00:24:17;;;;;;;7.90;2.60;;;;;;;;;;5072104;27;20070;-70
2023/05/02 00:26:43;;;;;;;9.98;2.78;;;;;;;;;;5068066;28;20195;-69
2023/05/02 00:29:10;;;;;;;8.18;2.50;;;;;;;;;;5067432;28;20055;-70
2023/05/02 00:31:36;;;;;;;7.78;2.75;;;;;;;;;;5076523;28;20078;-70
2023/05/02 00:34:02;;;;;;;8.48;2.63;;;;;;;;;;5075390;28;21328;-69
2023/05/02 00:36:28;;;;;;;11.73;2.60;;;;;;;;;;5074399;28;20047;-69
2023/05/02 00:38:54;;;;;;;9.65;2.47;;;;;;;;;;5072649;28;20047;-69
2023/05/02 00:41:20;;;;;;;7.05;2.58;;;;;;;;;;5075540;28;20048;-70
2023/05/02 00:43:46;;;;;;;9.30;2.92;;;;;;;;;;5079933;28;20052;-69
2023/05/02 00:46:13;;;;;;;17.60;3.83;;;;;;;;;;5054283;28;20094;-70
2023/05/02 00:48:39;;;;;;;14.38;3.70;;;;;;;;;;5070790;28;20170;-70
2023/05/02 00:51:07;;;;;;;22.02;5.20;;;;;;;;;;5090398;27;20143;-69
2023/05/02 00:53:33;;;;;;;20.98;5.10;;;;;;;;;;5073062;28;20056;-69
2023/05/02 00:56:01;;;;;;;20.30;4.57;;;;;;;;;;5074049;28;20123;-70
2023/05/02 00:58:29;;;;;;;22.05;5.57;;;;;;;;;;5071392;28;20051;-69
2023/05/02 01:01:15;;;;;;;17.35;4.60;;;;;;;;;;5091700;27;20525;-70
2023/05/02 01:03:47;;;;;;;20.58;5.13;;;;;;;;;;5093118;28;20513;-69
2023/05/02 01:06:23;;;;;;;20.80;5.38;;;;;;;;;;5077448;28;20851;-69
2023/05/02 01:08:52;;;;;;;21.38;4.68;;;;;;;;;;5072480;28;20054;-69
2023/05/02 01:11:35;;;;;;;22.25;5.00;;;;;;;;;;5092052;28;20039;-70
2023/05/02 01:14:03;;;;;;;19.30;4.25;;;;;;;;;;5073909;28;20063;-70
2023/05/02 01:16:30;;;;;;;18.63;4.15;;;;;;;;;;5072817;28;20072;-70
2023/05/02 01:18:58;;;;;;;19.27;4.45;;;;;;;;;;5093765;27;20035;-70
2023/05/02 01:21:25;;;;;;;13.65;3.85;;;;;;;;;;5074387;28;20043;-69
2023/05/02 01:23:51;;;;;;;22.73;4.57;;;;;;;;;;5072370;28;20145;-69
2023/05/02 01:26:25;;;;;;;21.77;4.95;;;;;;;;;;5071493;28;20039;-70
2023/05/02 01:29:00;;;;;;;20.52;4.63;;;;;;;;;;5072132;28;20125;-69
2023/05/02 01:31:30;;;;;;;22.70;4.55;;;;;;;;;;5092146;27;21996;-70
2023/05/02 01:33:58;;;;;;;21.67;5.05;;;;;;;;;;5091374;28;20131;-70
2023/05/02 01:36:26;;;;;;;23.23;5.50;;;;;;;;;;5073339;28;20054;-70
2023/05/02 01:38:54;;;;;;;19.40;4.85;;;;;;;;;;5070350;28;20052;-69
2023/05/02 01:41:21;;;;;;;18.73;4.25;;;;;;;;;;5071754;28;20067;-70
2023/05/02 01:43:47;;;;;;;21.50;4.63;;;;;;;;;;5092536;28;20046;-70
2023/05/02 01:46:14;;;;;;;23.98;4.60;;;;;;;;;;5071597;28;20044;-70
2023/05/02 01:48:44;;;;;;;20.55;5.57;;;;;;;;;;5070535;28;20147;-69
2023/05/02 01:51:11;;;;;;;18.75;5.10;;;;;;;;;;5086564;28;20179;-69
2023/05/02 01:53:38;;;;;;;24.13;5.32;;;;;;;;;;5093819;28;20131;-70
2023/05/02 01:56:05;;;;;;;24.52;5.63;;;;;;;;;;5091286;28;20039;-70
2023/05/02 01:58:31;;;;;;;27.23;5.72;;;;;;;;;;5077617;28;20059;-70
2023/05/02 02:00:59;;;;;;;23.15;4.90;;;;;;;;;;5089825;28;20133;-70
2023/05/02 02:03:26;;;;;;;34.80;6.07;;;;;;;;;;5088450;28;20422;-69
2023/05/02 02:05:53;;;;;;;27.08;5.05;;;;;;;;;;5070129;28;20459;-69
2023/05/02 02:08:20;;;;;;;23.75;5.47;;;;;;;;;;5070816;28;20047;-70
2023/05/02 02:10:49;;;;;;;25.02;5.68;;;;;;;;;;5079052;28;20403;-69
2023/05/02 02:13:17;;;;;;;30.42;6.47;;;;;;;;;;5087569;28;20043;-70
2023/05/02 02:15:47;;;;;;;25.40;5.68;;;;;;;;;;5070557;28;20040;-69
2023/05/02 02:18:18;;;;;;;21.02;4.45;;;;;;;;;;5089366;28;20076;-70
2023/05/02 02:20:45;;;;;;;29.90;5.30;;;;;;;;;;5066758;28;20056;-70
2023/05/02 02:23:13;;;;;;;26.55;5.90;;;;;;;;;;5075872;27;20108;-70
2023/05/02 02:25:40;;;;;;;23.38;4.72;;;;;;;;;;5071180;28;20519;-70
2023/05/02 02:28:07;;;;;;;19.38;3.88;;;;;;;;;;5072617;28;20058;-70
2023/05/02 02:30:33;;;;;;;25.25;5.85;;;;;;;;;;5072115;27;20048;-70
2023/05/02 02:32:59;;;;;;;20.77;4.60;;;;;;;;;;5070822;27;20059;-71
2023/05/02 02:35:29;;;;;;;20.55;3.80;;;;;;;;;;5092061;27;20343;-69
2023/05/02 02:38:02;;;;;;;13.98;3.30;;;;;;;;;;5077589;28;20043;-69
2023/05/02 02:40:31;;;;;;;19.05;3.80;;;;;;;;;;5076980;28;20063;-69
2023/05/02 02:43:10;;;;;;;19.98;4.30;;;;;;;;;;5073903;28;20085;-69
2023/05/02 02:45:39;;;;;;;14.88;3.50;;;;;;;;;;5074166;27;20208;-70
2023/05/02 02:48:06;;;;;;;18.90;4.30;;;;;;;;;;5069990;28;20364;-69
2023/05/02 02:50:34;;;;;;;18.88;4.43;;;;;;;;;;5072949;28;20086;-69
2023/05/02 02:53:07;;;;;;;32.53;4.60;;;;;;;;;;5078005;27;20398;-69
2023/05/02 02:55:40;;;;;;;16.63;3.58;;;;;;;;;;5076942;27;20405;-69
2023/05/02 02:58:16;;;;;;;17.58;3.72;;;;;;;;;;5076700;28;20040;-69
2023/05/02 03:00:43;;;;;;;26.83;5.70;;;;;;;;;;5059345;27;20071;-69
2023/05/02 03:03:10;;;;;;;18.27;3.40;;;;;;;;;;5077026;27;20071;-69
2023/05/02 03:05:36;;;;;;;17.65;3.45;;;;;;;;;;5092238;27;20134;-69
2023/05/02 03:08:02;;;;;;;18.42;4.18;;;;;;;;;;5092076;27;20467;-70
2023/05/02 03:10:29;;;;;;;13.23;3.42;;;;;;;;;;5071022;27;20164;-69
2023/05/02 03:12:55;;;;;;;11.98;3.35;;;;;;;;;;5090683;27;20060;-69
2023/05/02 03:15:42;;;;;;;20.25;3.17;;;;;;;;;;5068683;27;20134;-69
2023/05/02 03:18:08;;;;;;;18.20;4.07;;;;;;;;;;5076646;27;20474;-69
2023/05/02 03:20:34;;;;;;;10.50;2.80;;;;;;;;;;5094203;27;20043;-69
2023/05/02 03:23:01;;;;;;;15.68;3.03;;;;;;;;;;5074332;27;20048;-69
2023/05/02 03:25:27;;;;;;;20.00;3.88;;;;;;;;;;5092876;27;20093;-69
2023/05/02 03:27:53;;;;;;;17.55;2.78;;;;;;;;;;5069316;27;20395;-70
2023/05/02 03:30:19;;;;;;;13.52;2.90;;;;;;;;;;5072687;27;20048;-69
2023/05/02 03:32:45;;;;;;;16.27;2.97;;;;;;;;;;5074880;27;20051;-70
2023/05/02 03:35:11;;;;;;;14.98;2.97;;;;;;;;;;5074237;27;20055;-69
2023/05/02 03:37:37;;;;;;;16.35;2.92;;;;;;;;;;5091731;27;20059;-69
2023/05/02 03:40:04;;;;;;;10.18;2.35;;;;;;;;;;5096444;27;20043;-70
2023/05/02 03:42:30;;;;;;;17.70;3.55;;;;;;;;;;5074734;28;20085;-69
2023/05/02 03:44:56;;;;;;;16.67;2.60;;;;;;;;;;5078260;28;20085;-69
2023/05/02 03:47:23;;;;;;;11.02;2.58;;;;;;;;;;5096565;27;20046;-70
2023/05/02 03:49:49;;;;;;;12.48;2.45;;;;;;;;;;5073520;28;20044;-69
2023/05/02 03:52:15;;;;;;;14.48;2.65;;;;;;;;;;5071213;28;20051;-69
2023/05/02 03:54:42;;;;;;;8.82;1.90;;;;;;;;;;5069031;27;20047;-69
2023/05/02 03:57:08;;;;;;;9.45;2.03;;;;;;;;;;5077630;28;20047;-69
2023/05/02 03:59:34;;;;;;;8.63;2.47;;;;;;;;;;5090721;27;20040;-69
2023/05/02 04:02:01;;;;;;;9.77;2.58;;;;;;;;;;5094651;27;20043;-69
2023/05/02 04:04:27;;;;;;;13.60;2.28;;;;;;;;;;5072906;28;20048;-70
2023/05/02 04:06:53;;;;;;;11.27;2.65;;;;;;;;;;5073819;28;20475;-69
2023/05/02 04:09:23;;;;;;;14.85;2.10;;;;;;;;;;5075445;28;20036;-70
2023/05/02 04:11:50;;;;;;;12.75;2.22;;;;;;;;;;5089314;27;20051;-69
2023/05/02 04:14:16;;;;;;;8.63;2.20;;;;;;;;;;5056622;28;20147;-70
2023/05/02 04:16:42;;;;;;;8.02;1.70;;;;;;;;;;5090023;27;20250;-70
2023/05/02 04:19:08;;;;;;;13.23;2.58;;;;;;;;;;5068892;28;20051;-69
2023/05/02 04:21:36;;;;;;;9.45;1.95;;;;;;;;;;5074062;27;20071;-69
2023/05/02 04:24:02;;;;;;;9.27;2.00;;;;;;;;;;5071714;28;20475;-70
2023/05/02 04:26:28;;;;;;;12.25;2.70;;;;;;;;;;5090405;27;20040;-70
2023/05/02 04:28:54;;;;;;;9.20;2.20;;;;;;;;;;5065167;28;20380;-70
2023/05/02 04:31:20;;;;;;;9.13;2.65;;;;;;;;;;5052711;28;20118;-71
2023/05/02 04:33:47;;;;;;;8.18;1.92;;;;;;;;;;5068786;28;20468;-70
2023/05/02 04:36:14;;;;;;;12.70;2.50;;;;;;;;;;5070082;28;20345;-70
2023/05/02 04:38:40;;;;;;;9.40;3.05;;;;;;;;;;5065456;28;20052;-69
2023/05/02 04:41:06;;;;;;;12.63;2.60;;;;;;;;;;5072466;28;20040;-69
2023/05/02 04:43:32;;;;;;;10.48;3.33;;;;;;;;;;5051555;28;20061;-70
2023/05/02 04:45:59;;;;;;;19.63;3.30;;;;;;;;;;5070553;28;20117;-70
2023/05/02 04:48:25;;;;;;;12.48;2.33;;;;;;;;;;5071087;28;20048;-70
2023/05/02 04:50:52;;;;;;;12.20;2.78;;;;;;;;;;5070864;28;20039;-70
2023/05/02 04:53:18;;;;;;;16.00;2.53;;;;;;;;;;5070559;28;20103;-70
2023/05/02 04:55:45;;;;;;;14.68;2.53;;;;;;;;;;5070702;28;20111;-70
2023/05/02 04:58:11;;;;;;;13.80;3.00;;;;;;;;;;5068305;28;20045;-70
2023/05/02 05:00:37;;;;;;;14.55;2.60;;;;;;;;;;5069612;28;20120;-70
2023/05/02 05:03:05;;;;;;;19.65;3.13;;;;;;;;;;5069967;28;20056;-70
2023/05/02 05:05:31;;;;;;;12.57;2.50;;;;;;;;;;5071934;28;20055;-70
2023/05/02 05:07:57;;;;;;;16.73;3.72;;;;;;;;;;5072541;28;20122;-70
2023/05/02 05:10:23;;;;;;;14.55;2.45;;;;;;;;;;5076713;28;20174;-70
2023/05/02 05:12:50;;;;;;;13.18;2.83;;;;;;;;;;5074747;28;20044;-69
2023/05/02 05:15:16;;;;;;;12.95;2.20;;;;;;;;;;5072127;28;20048;-70
2023/05/02 05:17:42;;;;;;;10.48;2.45;;;;;;;;;;5079218;28;20111;-70
2023/05/02 05:20:09;;;;;;;13.02;2.95;;;;;;;;;;5067725;28;20087;-70
2023/05/02 05:22:39;;;;;;;14.48;2.50;;;;;;;;;;5069755;28;20072;-70
2023/05/02 05:25:05;;;;;;;9.13;2.33;;;;;;;;;;5071625;28;20083;-70
2023/05/02 05:27:31;;;;;;;9.98;2.70;;;;;;;;;;5068425;28;20504;-68
2023/05/02 05:29:57;;;;;;;18.13;3.35;;;;;;;;;;5088421;28;20094;-68
2023/05/02 05:32:24;;;;;;;10.52;2.70;;;;;;;;;;5091350;28;20044;-68
2023/05/02 05:34:52;;;;;;;13.07;3.30;;;;;;;;;;5091607;28;20052;-66
2023/05/02 05:37:19;;;;;;;9.70;2.63;;;;;;;;;;5090370;28;20047;-68
2023/05/02 05:39:45;;;;;;;15.85;2.63;;;;;;;;;;5077184;28;20052;-68
2023/05/02 05:42:11;;;;;;;15.65;2.75;;;;;;;;;;5072027;28;20048;-68
2023/05/02 05:44:38;;;;;;;10.75;2.25;;;;;;;;;;5089426;28;20391;-68
2023/05/02 05:47:04;;;;;;;14.25;2.78;;;;;;;;;;5091262;27;20240;-68
2023/05/02 05:49:31;;;;;;;11.93;3.67;;;;;;;;;;5092843;28;20660;-68
2023/05/02 05:51:57;;;;;;;13.85;3.33;;;;;;;;;;5071565;28;20054;-68
2023/05/02 05:54:24;;;;;;;13.10;2.65;;;;;;;;;;5071897;28;20044;-68
2023/05/02 05:56:50;;;;;;;10.07;2.85;;;;;;;;;;5072917;28;20047;-68
2023/05/02 05:59:16;;;;;;;10.90;2.70;;;;;;;;;;5077661;28;20409;-68
2023/05/02 06:01:42;;;;;;;13.27;2.70;;;;;;;;;;5077384;28;20052;-67
2023/05/02 06:04:08;;;;;;;11.68;3.38;;;;;;;;;;5091562;28;20136;-68
2023/05/02 06:06:35;;;;;;;8.93;3.08;;;;;;;;;;5073610;28;20050;-68
2023/05/02 06:09:01;;;;;;;15.00;3.47;;;;;;;;;;5071982;28;20040;-68
2023/05/02 06:11:27;;;;;;;11.40;2.30;;;;;;;;;;5072225;28;20040;-69
2023/05/02 06:13:54;;;;;;;10.25;2.67;;;;;;;;;;5096445;28;20750;-68
2023/05/02 06:16:20;;;;;;;15.75;3.28;;;;;;;;;;5075491;28;20044;-68
2023/05/02 06:18:47;;;;;;;8.20;2.10;;;;;;;;;;5072813;28;20043;-68
2023/05/02 06:21:13;;;;;;;12.55;2.78;;;;;;;;;;5073476;28;20564;-69
2023/05/02 06:23:39;;;;;;;12.43;2.40;;;;;;;;;;5069256;28;20070;-68
2023/05/02 06:26:06;;;;;;;10.13;2.35;;;;;;;;;;5086965;28;20052;-68
2023/05/02 06:28:32;;;;;;;16.42;3.47;;;;;;;;;;5070303;28;20518;-68
2023/05/02 06:30:58;;;;;;;10.45;2.80;;;;;;;;;;5074578;28;20040;-68
2023/05/02 06:33:24;;;;;;;10.30;2.55;;;;;;;;;;5101563;28;20052;-68
2023/05/02 06:35:52;;;;;;;13.65;3.38;;;;;;;;;;5094823;28;20043;-67
2023/05/02 06:38:18;;;;;;;8.23;2.17;;;;;;;;;;5073358;28;20047;-70
2023/05/02 06:40:44;;;;;;;11.20;2.90;;;;;;;;;;5070098;28;20403;-70
2023/05/02 06:43:11;;;;;;;16.00;3.72;;;;;;;;;;5070853;28;20044;-70
2023/05/02 06:45:37;;;;;;;15.30;2.88;;;;;;;;;;5053894;28;20064;-70
2023/05/02 06:48:03;;;;;;;10.68;3.30;;;;;;;;;;5073304;28;20134;-69
2023/05/02 06:50:29;;;;;;;19.08;4.10;;;;;;;;;;5071161;28;20039;-75
2023/05/02 06:52:55;;;;;;;12.30;3.58;;;;;;;;;;5052877;28;20044;-68
2023/05/02 06:55:22;;;;;;;13.57;2.85;;;;;;;;;;5090509;28;20130;-73
2023/05/02 06:57:48;;;;;;;12.32;2.75;;;;;;;;;;5074051;28;20210;-72
2023/05/02 07:00:16;;;;;;;16.23;3.78;;;;;;;;;;5075841;28;20268;-72
2023/05/02 07:02:42;;;;;;;15.75;3.58;;;;;;;;;;5080924;28;20036;-72
2023/05/02 07:05:08;;;;;;;13.82;2.90;;;;;;;;;;5076975;28;20140;-72
2023/05/02 07:07:34;;;;;;;12.18;2.85;;;;;;;;;;5080646;28;20075;-72
2023/05/02 07:10:00;;;;;;;13.48;3.50;;;;;;;;;;5080950;27;20226;-72
2023/05/02 07:12:27;;;;;;;14.18;3.13;;;;;;;;;;5084493;28;20067;-72
2023/05/02 07:14:53;;;;;;;18.60;3.35;;;;;;;;;;5076063;28;20135;-72
2023/05/02 07:17:20;;;;;;;11.32;3.20;;;;;;;;;;5079154;28;20119;-72
2023/05/02 07:19:46;;;;;;;10.27;2.58;;;;;;;;;;5079268;28;20051;-72
2023/05/02 07:22:12;;;;;;;19.08;2.95;;;;;;;;;;5093142;27;20135;-72
2023/05/02 07:24:40;;;;;;;16.30;3.05;;;;;;;;;;5076881;27;20051;-73
2023/05/02 07:27:06;;;;;;;15.68;3.28;;;;;;;;;;5075610;28;20032;-72
2023/05/02 07:29:33;;;;;;;10.73;2.53;;;;;;;;;;5080363;28;20433;-72
2023/05/02 07:31:59;;;;;;;9.50;3.05;;;;;;;;;;5084250;27;20056;-72
2023/05/02 07:34:25;;;;;;;8.43;2.42;;;;;;;;;;5084316;27;20108;-72
2023/05/02 07:36:51;;;;;;;16.63;3.40;;;;;;;;;;5079424;28;20079;-72
2023/05/02 07:39:17;;;;;;;15.20;2.65;;;;;;;;;;5074694;28;20051;-72
2023/05/02 07:41:43;;;;;;;10.88;2.67;;;;;;;;;;5083656;28;20048;-72
2023/05/02 07:44:10;;;;;;;11.95;3.40;;;;;;;;;;5059689;28;20063;-72
2023/05/02 07:46:36;;;;;;;9.60;3.00;;;;;;;;;;5080275;27;20082;-72
2023/05/02 07:49:02;;;;;;;10.52;2.15;;;;;;;;;;5084213;27;20071;-72
2023/05/02 07:51:28;;;;;;;7.63;2.10;;;;;;;;;;5081361;27;20040;-72
2023/05/02 07:53:57;;;;;;;8.40;2.00;;;;;;;;;;5078547;28;20449;-72
2023/05/02 07:56:24;;;;;;;8.80;2.30;;;;;;;;;;5100179;27;20147;-72
2023/05/02 07:58:50;;;;;;;15.07;2.92;;;;;;;;;;5080300;28;20092;-73
2023/05/02 08:01:17;;;;;;;9.57;2.40;;;;;;;;;;5080290;27;20123;-72
2023/05/02 08:03:43;;;;;;;11.65;2.92;;;;;;;;;;5074782;28;20088;-73
2023/05/02 08:06:09;;;;;;;12.48;3.05;;;;;;;;;;5074251;28;20044;-73
2023/05/02 08:08:35;;;;;;;8.00;2.20;;;;;;;;;;5091009;28;20669;-72
2023/05/02 08:11:02;;;;;;;12.02;2.70;;;;;;;;;;5101145;27;20039;-72
2023/05/02 08:13:28;;;;;;;10.55;1.98;;;;;;;;;;5077876;27;20040;-72
2023/05/02 08:15:56;;;;;;;8.30;2.70;;;;;;;;;;5057086;28;20040;-72
2023/05/02 08:18:23;;;;;;;8.00;2.70;;;;;;;;;;5075020;28;20497;-72
2023/05/02 08:20:50;;;;;;;17.00;3.05;;;;;;;;;;5078430;28;20147;-72
2023/05/02 08:23:16;;;;;;;10.93;2.33;;;;;;;;;;5079614;27;20167;-72
2023/05/02 08:25:42;;;;;;;7.72;1.98;;;;;;;;;;5076697;28;20136;-72
2023/05/02 08:28:09;;;;;;;7.32;2.20;;;;;;;;;;5077015;27;20043;-72
2023/05/02 08:30:35;;;;;;;8.45;2.38;;;;;;;;;;5074040;27;20483;-72
2023/05/02 08:33:01;;;;;;;10.32;2.13;;;;;;;;;;5075362;28;20044;-72
2023/05/02 08:35:31;;;;;;;8.38;2.17;;;;;;;;;;5076630;28;20039;-72
2023/05/02 08:37:58;;;;;;;6.03;2.45;;;;;;;;;;5075592;28;20385;-72
2023/05/02 08:40:25;;;;;;;7.65;1.70;;;;;;;;;;5080440;28;20101;-72
2023/05/02 08:42:52;;;;;;;5.78;1.70;;;;;;;;;;5080460;27;20043;-72
2023/05/02 08:45:19;;;;;;;5.50;1.60;;;;;;;;;;5099717;27;20046;-72
2023/05/02 08:47:46;;;;;;;6.53;1.20;;;;;;;;;;5080170;28;20051;-72
2023/05/02 08:50:12;;;;;;;4.47;1.10;;;;;;;;;;5060666;27;20043;-73
2023/05/02 08:52:39;;;;;;;7.40;1.27;;;;;;;;;;5096116;27;20097;-73
2023/05/02 08:55:06;;;;;;;9.25;1.60;;;;;;;;;;5083781;28;20433;-73
2023/05/02 08:57:33;;;;;;;3.80;1.10;;;;;;;;;;5079902;28;20359;-72
2023/05/02 08:59:59;;;;;;;5.05;1.17;;;;;;;;;;5075873;28;20036;-72
2023/05/02 09:02:28;;;;;;;7.18;1.38;;;;;;;;;;5081001;27;20036;-72
2023/05/02 09:05:00;;;;;;;6.32;1.20;;;;;;;;;;5092404;27;20101;-73
2023/05/02 09:07:26;;;;;;;6.07;1.67;;;;;;;;;;5074479;28;20441;-72
2023/05/02 09:09:53;;;;;;;6.00;1.48;;;;;;;;;;5094382;27;20047;-72
2023/05/02 09:12:25;;;;;;;6.25;1.33;;;;;;;;;;5077339;28;20048;-73
2023/05/02 09:15:08;;;;;;;4.57;1.15;;;;;;;;;;5090364;27;20044;-73
2023/05/02 09:17:42;;;;;;;8.20;1.67;;;;;;;;;;5080633;27;20044;-73
2023/05/02 09:20:10;;;;;;;5.55;1.75;;;;;;;;;;5096422;27;20112;-72
2023/05/02 09:22:37;;;;;;;6.18;1.42;;;;;;;;;;5079908;28;20047;-72
2023/05/02 09:25:04;;;;;;;6.38;1.55;;;;;;;;;;5077515;28;20479;-73
2023/05/02 09:27:30;;;;;;;10.70;2.20;;;;;;;;;;5074443;28;20561;-73
2023/05/02 09:30:15;;;;;;;6.65;1.58;;;;;;;;;;5058385;28;20052;-73
2023/05/02 09:32:45;;;;;;;9.45;2.25;;;;;;;;;;5086003;28;20771;-73
2023/05/02 09:35:12;;;;;;;7.75;1.40;;;;;;;;;;5079486;28;20048;-73
2023/05/02 09:37:38;;;;;;;6.05;1.38;;;;;;;;;;5078254;28;20472;-72
2023/05/02 09:40:05;;;;;;;8.18;1.40;;;;;;;;;;5069404;28;20395;-72
2023/05/02 09:42:31;;;;;;;5.95;1.33;;;;;;;;;;5077246;27;20043;-72
2023/05/02 09:44:58;;;;;;;5.60;1.33;;;;;;;;;;5073456;28;20052;-72
2023/05/02 09:47:26;;;;;;;7.95;1.95;;;;;;;;;;5078174;28;20413;-72
2023/05/02 09:49:52;;;;;;;6.20;1.67;;;;;;;;;;5077451;28;20043;-73
2023/05/02 09:52:20;;;;;;;4.57;1.23;;;;;;;;;;5080489;28;20040;-73
2023/05/02 09:54:49;;;;;;;6.70;1.35;;;;;;;;;;5092090;28;20089;-73
2023/05/02 09:57:15;;;;;;;3.25;0.88;;;;;;;;;;5081844;28;20742;-73
2023/05/02 09:59:41;;;;;;;4.28;1.17;;;;;;;;;;5078208;28;20514;-73
2023/05/02 10:02:10;;;;;;;6.22;1.50;;;;;;;;;;5095195;28;20081;-73
2023/05/02 10:04:36;;;;;;;4.75;1.10;;;;;;;;;;5080067;28;20101;-73
2023/05/02 10:07:03;;;;;;;5.82;1.30;;;;;;;;;;5075010;28;20062;-73
2023/05/02 10:09:31;;;;;;;6.15;1.50;;;;;;;;;;5091790;28;20052;-73
2023/05/02 10:12:02;;;;;;;4.00;1.20;;;;;;;;;;5073845;28;20082;-73
2023/05/02 10:14:29;;;;;;;6.25;1.30;;;;;;;;;;5075654;28;20507;-73
2023/05/02 10:17:01;;;;;;;8.02;1.90;;;;;;;;;;5071804;28;20127;-73
2023/05/02 10:19:29;;;;;;;6.60;2.15;;;;;;;;;;5092770;28;20112;-73
2023/05/02 10:21:57;;;;;;;7.68;1.85;;;;;;;;;;5078319;28;20046;-73
2023/05/02 10:24:24;;;;;;;7.18;1.80;;;;;;;;;;5075105;28;20420;-73
2023/05/02 10:26:51;;;;;;;7.38;1.95;;;;;;;;;;5104194;28;20067;-73
2023/05/02 10:29:17;;;;;;;5.88;1.42;;;;;;;;;;5096248;28;20186;-73
2023/05/02 10:31:44;;;;;;;6.15;1.33;;;;;;;;;;5099046;28;20047;-73
2023/05/02 10:34:12;;;;;;;7.47;1.92;;;;;;;;;;5096346;28;20044;-73
2023/05/02 10:36:38;;;;;;;6.70;1.48;;;;;;;;;;5077837;28;20121;-73
2023/05/02 10:39:04;;;;;;;7.32;1.80;;;;;;;;;;5074503;28;20559;-73
2023/05/02 10:41:33;;;;;;;8.27;1.88;;;;;;;;;;5079707;28;20037;-73
2023/05/02 10:44:00;;;;;;;8.30;1.60;;;;;;;;;;5094148;27;20468;-73
2023/05/02 10:46:30;;;;;;;7.28;1.98;;;;;;;;;;5078399;27;20432;-73
2023/05/02 10:49:01;;;;;;;5.38;1.45;;;;;;;;;;5077403;28;20048;-73
2023/05/02 10:51:28;;;;;;;7.75;1.50;;;;;;;;;;5093166;27;20089;-73
2023/05/02 10:53:56;;;;;;;6.38;1.50;;;;;;;;;;5078606;28;20453;-73
2023/05/02 10:56:25;;;;;;;5.70;1.25;;;;;;;;;;5097428;28;20044;-73
2023/05/02 10:58:52;;;;;;;6.03;1.42;;;;;;;;;;5078912;27;20487;-73
2023/05/02 11:01:25;;;;;;;3.78;1.13;;;;;;;;;;5075559;28;20387;-73
2023/05/02 11:03:56;;;;;;;4.68;1.38;;;;;;;;;;5079455;28;20077;-73
2023/05/02 11:06:23;;;;;;;7.80;1.35;;;;;;;;;;5066021;28;20119;-73
2023/05/02 11:08:49;;;;;;;4.57;1.30;;;;;;;;;;5082979;27;20493;-73
2023/05/02 11:11:34;;;;;;;3.70;1.13;;;;;;;;;;5084230;27;20391;-73
2023/05/02 11:14:00;;;;;;;8.45;2.17;;;;;;;;;;5098175;27;20043;-73
2023/05/02 11:16:26;;;;;;;7.18;1.85;;;;;;;;;;5075675;28;20043;-73
2023/05/02 11:19:00;;;;;;;6.93;1.50;;;;;;;;;;5080446;28;20486;-73
2023/05/02 11:21:28;;;;;;;7.30;1.70;;;;;;;;;;5076192;28;20191;-73
2023/05/02 11:24:14;;;;;;;6.60;1.85;;;;;;;;;;5075449;28;20043;-73
2023/05/02 11:26:40;;;;;;;5.95;1.50;;;;;;;;;;5077493;27;20070;-73
2023/05/02 11:29:06;;;;;;;5.80;1.25;;;;;;;;;;5074160;27;20048;-73
2023/05/02 11:31:33;;;;;;;3.20;1.27;;;;;;;;;;5073550;28;20447;-73
2023/05/02 11:34:00;;;;;;;5.88;1.27;;;;;;;;;;5078960;28;20048;-73
2023/05/02 11:36:28;;;;;;;5.15;1.20;;;;;;;;;;5078948;28;20047;-73
2023/05/02 11:38:54;;;;;;;5.72;1.15;;;;;;;;;;5076563;28;20048;-73
2023/05/02 11:41:20;;;;;;;4.68;1.00;;;;;;;;;;5081766;28;20055;-73
2023/05/02 11:43:47;;;;;;;4.35;1.20;;;;;;;;;;5081973;28;20058;-73
2023/05/02 11:46:13;;;;;;;3.55;0.95;;;;;;;;;;5101684;27;20074;-73
2023/05/02 11:48:41;;;;;;;5.80;1.15;;;;;;;;;;5078986;28;20459;-73
2023/05/02 11:51:07;;;;;;;6.35;1.25;;;;;;;;;;5078069;27;20387;-73
2023/05/02 11:53:33;;;;;;;3.92;1.45;;;;;;;;;;5077025;27;20371;-73
2023/05/02 11:56:00;;;;;;;3.58;1.00;;;;;;;;;;5077646;27;20056;-73
2023/05/02 11:58:31;;;;;;;5.40;1.13;;;;;;;;;;5075246;28;20406;-73
2023/05/02 12:00:57;;;;;;;7.03;1.60;;;;;;;;;;5094517;27;20137;-73
2023/05/02 12:03:30;;;;;;;3.53;0.82;;;;;;;;;;5077405;27;20052;-73
2023/05/02 12:05:56;;;;;;;;;;;;;;;;;;5081242;27;20051;-73
2023/05/02 12:08:25;;;;;;;6.47;1.10;;;;;;;;;;5077070;28;19965;-73
2023/05/02 12:10:52;;;;;;;5.28;0.85;;;;;;;;;;5080992;28;20055;-73
2023/05/02 12:13:18;;;;;;;2.70;0.80;;;;;;;;;;5078838;27;20525;-73
2023/05/02 12:15:44;;;;;;;5.55;1.20;;;;;;;;;;5080558;28;20047;-73
2023/05/02 12:18:11;;;;;;;7.25;1.40;;;;;;;;;;5076093;28;20048;-73
2023/05/02 12:20:38;;;;;;;6.70;1.40;;;;;;;;;;5073339;28;20044;-73
2023/05/02 12:23:06;;;;;;;5.97;1.52;;;;;;;;;;5096409;28;20561;-73
2023/05/02 12:25:32;;;;;;;4.80;1.15;;;;;;;;;;5079366;28;20044;-73
2023/05/02 12:28:00;;;;;;;7.68;1.30;;;;;;;;;;5083954;27;20663;-72
2023/05/02 12:30:27;;;;;;;6.43;1.30;;;;;;;;;;5099819;27;20036;-72
2023/05/02 12:32:57;;;;;;;7.80;1.20;;;;;;;;;;5075779;28;20040;-72
2023/05/02 12:35:24;;;;;;;6.30;1.25;;;;;;;;;;5084760;27;20353;-73
2023/05/02 12:37:50;;;;;;;4.60;1.15;;;;;;;;;;5097999;27;20550;-73
2023/05/02 12:40:16;;;;;;;4.97;1.10;;;;;;;;;;5079808;28;20126;-73
2023/05/02 12:42:43;;;;;;;7.65;1.13;;;;;;;;;;5096431;27;20447;-72
2023/05/02 12:45:17;;;;;;;4.65;0.93;;;;;;;;;;5075672;27;20155;-72
2023/05/02 12:47:46;;;;;;;3.17;0.82;;;;;;;;;;5073870;28;20052;-72
2023/05/02 12:50:12;;;;;;;6.05;0.98;;;;;;;;;;5077457;28;20502;-73
2023/05/02 12:52:56;;;;;;;5.35;0.82;;;;;;;;;;5092917;27;20044;-73
2023/05/02 12:55:23;;;;;;;5.35;0.98;;;;;;;;;;5077582;28;20063;-73
2023/05/02 12:57:50;;;;;;;5.03;1.23;;;;;;;;;;5076924;28;20058;-72
2023/05/02 13:00:17;;;;;;;5.63;1.30;;;;;;;;;;5075484;28;20055;-73
2023/05/02 13:02:43;;;;;;;5.22;1.20;;;;;;;;;;5095713;27;20044;-73
2023/05/02 13:05:14;;;;;;;5.85;1.30;;;;;;;;;;5072659;27;20171;-73
2023/05/02 13:07:40;;;;;;;6.45;1.33;;;;;;;;;;5077909;28;20047;-73
2023/05/02 13:10:06;;;;;;;5.80;1.30;;;;;;;;;;5077758;28;20055;-73
2023/05/02 13:12:36;;;;;;;4.30;0.90;;;;;;;;;;5095267;28;20516;-73
2023/05/02 13:15:02;;;;;;;5.10;1.30;;;;;;;;;;5073587;28;20040;-73
2023/05/02 13:17:29;;;;;;;5.22;1.35;;;;;;;;;;5085968;28;20039;-73
2023/05/02 13:19:55;;;;;;;5.68;0.90;;;;;;;;;;5081282;28;20056;-73
2023/05/02 13:22:21;;;;;;;3.50;0.90;;;;;;;;;;5079525;28;20047;-73
2023/05/02 13:24:47;;;;;;;2.40;0.68;;;;;;;;;;5078018;28;20491;-73
2023/05/02 13:27:14;;;;;;;3.97;0.95;;;;;;;;;;5076851;28;20070;-73
2023/05/02 13:29:40;;;;;;;4.85;0.93;;;;;;;;;;5081004;28;20052;-73
2023/05/02 13:32:06;;;;;;;5.82;0.80;;;;;;;;;;5078914;28;20099;-73
2023/05/02 13:34:32;;;;;;;2.63;0.60;;;;;;;;;;5056626;28;20052;-73
2023/05/02 13:36:58;;;;;;;2.22;0.85;;;;;;;;;;5075050;28;20036;-73
2023/05/02 13:39:24;;;;;;;4.18;0.90;;;;;;;;;;5074461;28;20551;-73
2023/05/02 13:41:50;;;;;;;4.28;1.00;;;;;;;;;;5092350;28;20130;-73
2023/05/02 13:44:17;;;;;;;4.60;0.85;;;;;;;;;;5098632;28;20040;-73
2023/05/02 13:46:43;;;;;;;3.08;0.70;;;;;;;;;;5097911;27;20051;-73
2023/05/02 13:49:09;;;;;;;6.18;1.42;;;;;;;;;;5075852;28;20051;-73
2023/05/02 13:51:35;;;;;;;4.30;0.73;;;;;;;;;;5073012;28;20052;-70
2023/05/02 13:54:01;;;;;;;5.88;1.33;;;;;;;;;;5094090;27;20044;-70
2023/05/02 13:56:27;;;;;;;3.47;0.80;;;;;;;;;;5073371;28;20506;-69
2023/05/02 13:58:54;;;;;;;6.18;1.42;;;;;;;;;;5074028;28;20044;-69
2023/05/02 14:01:20;;;;;;;6.03;1.40;;;;;;;;;;5091593;28;20048;-69
2023/05/02 14:03:46;;;;;;;8.55;1.38;;;;;;;;;;5074053;28;20127;-70
2023/05/02 14:06:12;;;;;;;7.10;1.20;;;;;;;;;;5077902;28;20058;-70
2023/05/02 14:08:38;;;;;;;5.68;1.10;;;;;;;;;;5080052;28;20171;-69
2023/05/02 14:11:04;;;;;;;8.52;1.30;;;;;;;;;;5092917;28;20113;-69
2023/05/02 14:13:30;;;;;;;5.35;1.60;;;;;;;;;;5078005;28;20216;-69
2023/05/02 14:15:57;;;;;;;9.30;2.35;;;;;;;;;;5080247;28;20128;-69
2023/05/02 14:18:23;;;;;;;3.47;1.10;;;;;;;;;;5097660;28;20040;-69
2023/05/02 14:20:50;;;;;;;4.53;0.93;;;;;;;;;;5078376;28;20072;-69
2023/05/02 14:23:16;;;;;;;5.07;0.98;;;;;;;;;;5081438;28;20491;-70
2023/05/02 14:25:42;;;;;;;4.75;1.23;;;;;;;;;;5077265;28;20463;-69
2023/05/02 14:28:08;;;;;;;6.07;1.17;;;;;;;;;;5110473;28;20032;-69
2023/05/02 14:30:34;;;;;;;4.85;1.20;;;;;;;;;;5082696;28;20081;-70
2023/05/02 14:33:00;;;;;;;5.30;1.08;;;;;;;;;;5077595;28;20067;-69
2023/05/02 14:35:27;;;;;;;3.67;0.90;;;;;;;;;;5082403;28;20051;-69
2023/05/02 14:37:53;;;;;;;10.00;1.42;;;;;;;;;;5076810;28;20138;-69
2023/05/02 14:40:19;;;;;;;7.32;1.05;;;;;;;;;;5095176;28;20392;-69